createdAt,value
2019-02-21T00:00:39.331Z,99191.63
2019-02-21T00:07:17.861Z,99192.67
2019-02-21T00:13:48.644Z,99183.80
2019-02-21T00:20:16.565Z,99183.41
2019-02-21T00:26:49.453Z,99185.83
2019-02-21T00:33:14.263Z,99179.35
2019-02-21T00:39:48.168Z,99184.27
2019-02-21T00:46:14.991Z,99182.08
2019-02-21T00:52:53.942Z,99196.27
2019-02-21T01:02:44.706Z,99192.66
2019-02-21T01:12:20.490Z,99200.95
2019-02-21T01:18:50.361Z,99201.13
2019-02-21T01:25:17.187Z,99205.33
2019-02-21T01:31:45.021Z,99207.20
2019-02-21T01:38:27.769Z,99209.78
2019-02-21T01:44:53.627Z,99217.94
2019-02-21T01:51:22.684Z,99225.41
2019-02-21T01:58:00.484Z,99225.66
2019-02-21T02:04:27.447Z,99227.33
2019-02-21T02:10:29.031Z,99224.22
2019-02-21T02:16:45.664Z,99222.72
2019-02-21T02:23:25.733Z,99229.57
2019-02-21T02:29:51.293Z,99231.60
2019-02-21T02:36:17.142Z,99237.84
2019-02-21T02:42:56.106Z,99239.95
2019-02-21T02:49:26.047Z,99252.43
2019-02-21T02:55:56.874Z,99244.56
2019-02-21T03:02:22.674Z,99245.53
2019-02-21T03:08:49.327Z,99251.75
2019-02-21T03:15:08.219Z,99242.56
2019-02-21T03:21:34.263Z,99244.23
2019-02-21T03:28:18.463Z,99243.19
2019-02-21T03:34:44.090Z,99236.95
2019-02-21T03:41:12.931Z,99234.33
2019-02-21T03:47:50.890Z,99235.24
2019-02-21T03:54:16.489Z,99232.33
2019-02-21T04:00:43.157Z,99249.44
2019-02-21T04:07:13.381Z,99246.92
2019-02-21T04:16:43.698Z,99240.77
2019-02-21T04:23:22.981Z,99236.91
2019-02-21T04:29:48.801Z,99228.23
2019-02-21T04:36:23.430Z,99229.52
2019-02-21T04:42:49.532Z,99225.48
2019-02-21T04:49:17.372Z,99232.06
2019-02-21T04:55:45.213Z,99236.30
2019-02-21T05:02:13.717Z,99237.04
2019-02-21T05:08:51.864Z,99227.78
2019-02-21T05:18:56.995Z,99222.84
2019-02-21T05:25:25.841Z,99217.39
2019-02-21T05:31:58.734Z,99219.17
2019-02-21T05:38:54.852Z,99244.33
2019-02-21T05:45:43.448Z,99240.42
2019-02-21T05:52:39.485Z,99244.82
2019-02-21T05:59:31.970Z,99242.95
2019-02-21T06:06:38.324Z,99240.53
2019-02-21T06:12:56.060Z,99243.11
2019-02-21T06:19:28.953Z,99235.58
2019-02-21T06:26:14.757Z,99243.02
2019-02-21T06:29:09.687Z,99239.45
2019-02-21T06:35:32.493Z,99243.85
2019-02-21T06:42:00.520Z,99259.11
2019-02-21T06:48:27.178Z,99259.45
2019-02-21T06:55:09.140Z,99260.35
2019-02-21T07:01:33.958Z,99273.75
2019-02-21T07:08:03.587Z,99277.94
2019-02-21T07:14:35.584Z,99277.81
2019-02-21T07:21:02.523Z,99286.75
2019-02-21T07:27:30.148Z,99283.53
2019-02-21T07:33:57.191Z,99285.72
2019-02-21T07:40:23.014Z,99287.63
2019-02-21T07:47:01.959Z,99288.86
2019-02-21T07:53:27.782Z,99297.16
2019-02-21T07:59:29.168Z,99306.44
2019-02-21T08:06:08.322Z,99306.06
2019-02-21T08:12:34.142Z,99304.27
2019-02-21T08:22:47.964Z,99312.05
2019-02-21T08:29:14.046Z,99318.23
2019-02-21T08:35:37.619Z,99323.09
2019-02-21T08:41:44.466Z,99327.77
2019-02-21T08:48:08.025Z,99328.30
2019-02-21T08:54:21.986Z,99327.89
2019-02-21T09:00:47.787Z,99332.54
2019-02-21T09:07:26.389Z,99326.20
2019-02-21T09:13:52.555Z,99327.66
2019-02-21T09:23:31.282Z,99341.44
2019-02-21T09:29:20.742Z,99344.52
2019-02-21T09:35:49.590Z,99341.20
2019-02-21T09:42:29.381Z,99344.97
2019-02-21T09:49:05.471Z,99349.42
2019-02-21T09:55:34.121Z,99337.61
2019-02-21T10:02:11.025Z,99336.27
2019-02-21T10:08:34.831Z,99333.29
2019-02-21T10:14:58.628Z,99333.94
2019-02-21T10:25:24.049Z,99330.11
2019-02-21T10:31:27.423Z,99329.73
2019-02-21T10:37:56.492Z,99332.86
2019-02-21T10:44:26.367Z,99331.14
2019-02-21T10:50:57.661Z,99320.79
2019-02-21T10:57:37.182Z,99316.51
2019-02-21T11:04:04.016Z,99308.02
2019-02-21T11:10:29.833Z,99310.44
2019-02-21T11:17:07.696Z,99308.48
2019-02-21T11:26:56.604Z,99291.97
2019-02-21T11:33:27.060Z,99285.14
2019-02-21T11:39:55.314Z,99278.77
2019-02-21T11:46:19.115Z,99277.95
2019-02-21T11:52:57.714Z,99273.42
2019-02-21T11:59:23.882Z,99277.27
2019-02-21T12:05:17.575Z,99282.67
2019-02-21T12:11:42.901Z,99287.13
2019-02-21T12:18:24.175Z,99281.30
2019-02-21T12:28:27.144Z,99268.96
2019-02-21T12:34:52.963Z,99267.69
2019-02-21T12:41:22.861Z,99260.05
2019-02-21T12:47:57.518Z,99250.17
2019-02-21T12:54:26.225Z,99249.96
2019-02-21T13:00:52.404Z,99238.94
2019-02-21T13:06:43.514Z,99232.11
2019-02-21T13:17:10.085Z,99214.13
2019-02-21T13:23:49.036Z,99217.41
2019-02-21T13:30:06.559Z,99240.50
2019-02-21T13:36:36.634Z,99254.78
2019-02-21T13:43:15.587Z,99252.34
2019-02-21T13:49:43.223Z,99257.94
2019-02-21T13:56:10.253Z,99261.36
2019-02-21T14:02:33.696Z,99266.64
2019-02-21T14:09:12.646Z,99256.51
2019-02-21T14:15:40.843Z,99245.38
2019-02-21T14:22:06.665Z,99244.73
2019-02-21T14:31:43.119Z,99240.14
2019-02-21T14:38:27.938Z,99231.30
2019-02-21T14:44:49.573Z,99240.70
2019-02-21T14:51:14.974Z,99250.55
2019-02-21T14:57:42.822Z,99237.39
2019-02-21T15:04:21.765Z,99229.88
2019-02-21T15:10:49.605Z,99227.58
2019-02-21T15:17:15.200Z,99243.80
2019-02-21T15:23:57.024Z,99239.19
2019-02-21T15:34:02.024Z,99249.88
2019-02-21T15:40:28.217Z,99259.75
2019-02-21T15:46:56.058Z,99269.56
2019-02-21T15:53:34.729Z,99272.03
2019-02-21T16:00:02.617Z,99283.69
2019-02-21T16:06:31.351Z,99288.27
2019-02-21T16:13:04.203Z,99286.80
2019-02-21T16:19:44.332Z,99289.27
2019-02-21T16:26:11.373Z,99295.67
2019-02-21T16:36:26.230Z,99309.13
2019-02-21T16:42:52.091Z,99302.35
2019-02-21T16:49:33.257Z,99305.94
2019-02-21T16:55:58.070Z,99307.05
2019-02-21T17:02:26.916Z,99300.32
2019-02-21T17:09:08.658Z,99310.23
2019-02-21T17:15:34.510Z,99325.91
2019-02-21T17:22:04.459Z,99331.55
2019-02-21T17:28:31.407Z,99348.08
2019-02-21T17:38:14.811Z,99352.04
2019-02-21T17:44:55.815Z,99365.03
2019-02-21T17:51:25.763Z,99362.93
2019-02-21T17:57:51.836Z,99371.64
2019-02-21T18:04:31.402Z,99362.16
2019-02-21T18:10:57.618Z,99380.19
2019-02-21T18:17:26.549Z,99382.91
2019-02-21T18:23:51.276Z,99390.59
2019-02-21T18:30:17.101Z,99387.43
2019-02-21T18:40:23.874Z,99395.63
2019-02-21T18:46:49.928Z,99398.61
2019-02-21T18:53:18.438Z,99400.97
2019-02-21T18:59:59.751Z,99397.16
2019-02-21T19:06:27.348Z,99394.30
2019-02-21T19:12:53.199Z,99400.64
2019-02-21T19:19:09.129Z,99394.95
2019-02-21T19:25:48.076Z,99407.33
2019-02-21T19:32:13.904Z,99410.03
2019-02-21T19:42:29.667Z,99420.00
2019-02-21T19:48:51.580Z,99423.49
2019-02-21T19:55:30.371Z,99422.02
2019-02-21T20:02:00.318Z,99428.09
2019-02-21T20:08:28.217Z,99435.00
2019-02-21T20:15:05.357Z,99433.98
2019-02-21T20:21:30.973Z,99444.59
2019-02-21T20:27:58.006Z,99463.11
2019-02-21T20:34:21.804Z,99477.87
2019-02-21T20:43:57.536Z,99492.11
2019-02-21T20:50:35.449Z,99481.06
2019-02-21T20:57:04.295Z,99482.16
2019-02-21T21:03:31.127Z,99494.16
2019-02-21T21:09:56.725Z,99502.09
2019-02-21T21:16:33.874Z,99499.13
2019-02-21T21:23:04.410Z,99512.63
2019-02-21T21:29:34.347Z,99510.91
2019-02-21T21:35:47.086Z,99509.97
2019-02-21T21:46:00.278Z,99524.77
2019-02-21T21:52:26.936Z,99519.55
2019-02-21T21:58:59.075Z,99514.38
2019-02-21T22:05:23.884Z,99531.37
2019-02-21T22:11:48.593Z,99538.91
2019-02-21T22:18:15.524Z,99550.50
2019-02-21T22:24:41.106Z,99561.43
2019-02-21T22:31:11.877Z,99563.11
2019-02-21T22:37:00.445Z,99570.54
2019-02-21T22:47:01.616Z,99568.97
2019-02-21T22:53:27.190Z,99573.59
2019-02-21T22:59:53.041Z,99579.48
2019-02-21T23:06:45.104Z,99584.33
2019-02-21T23:13:26.308Z,99598.05
2019-02-21T23:20:03.022Z,99599.36
2019-02-21T23:32:59.923Z,99602.16
2019-02-21T23:38:49.025Z,99596.70
2019-02-21T23:45:19.246Z,99596.11
2019-02-21T23:51:46.868Z,99597.53
2019-02-21T23:58:15.590Z,99591.95
